<?xml version="1.0" encoding="UTF-8" standalone="no" ?>
<gpx xmlns="http://www.topografix.com/GPX/1/1" xmlns:xsi="http://www.w3.org/2001/XMLSchema-instance" xsi:schemaLocation="http://www.topografix.com/GPX/1/1 http://www.topografix.com/GPX/1/1/gpx.xsd" version="1.1" creator="VisuGPX - https://www.visugpx.com">
  <metadata>
    <name>Meslin-l'Évêque  FFBMP</name>
    <desc><![CDATA[10 kms

23 avril à Meslin-l'Évêque,organisée par les amis de la nature de ATH]]></desc>
  </metadata>
  <trk>
    <name><![CDATA[2017-04-23 10:32:45]]></name>
    <trkseg>
      <trkpt lat="50.64933" lon="3.84919">
        <ele>42.92</ele>
        <time>2017-04-23T06:19:08Z</time>
      </trkpt>
      <trkpt lat="50.64932" lon="3.84919">
        <ele>42.44</ele>
        <time>2017-04-23T06:19:09Z</time>
      </trkpt>
      <trkpt lat="50.64931" lon="3.84917">
        <ele>42.44</ele>
        <time>2017-04-23T06:19:11Z</time>
      </trkpt>
      <trkpt lat="50.64931" lon="3.84906">
        <ele>42.92</ele>
        <time>2017-04-23T06:19:17Z</time>
      </trkpt>
      <trkpt lat="50.64931" lon="3.84898">
        <ele>42.92</ele>
        <time>2017-04-23T06:19:22Z</time>
      </trkpt>
      <trkpt lat="50.64932" lon="3.84872">
        <ele>41.47</ele>
        <time>2017-04-23T06:19:37Z</time>
      </trkpt>
      <trkpt lat="50.64932" lon="3.8485">
        <ele>41.47</ele>
        <time>2017-04-23T06:19:49Z</time>
      </trkpt>
      <trkpt lat="50.64933" lon="3.84818">
        <ele>40.51</ele>
        <time>2017-04-23T06:20:07Z</time>
      </trkpt>
      <trkpt lat="50.64938" lon="3.84802">
        <ele>40.03</ele>
        <time>2017-04-23T06:20:20Z</time>
      </trkpt>
      <trkpt lat="50.64949" lon="3.84793">
        <ele>39.55</ele>
        <time>2017-04-23T06:20:33Z</time>
      </trkpt>
      <trkpt lat="50.64972" lon="3.84799">
        <ele>38.59</ele>
        <time>2017-04-23T06:20:50Z</time>
      </trkpt>
      <trkpt lat="50.64982" lon="3.84802">
        <ele>39.07</ele>
        <time>2017-04-23T06:20:57Z</time>
      </trkpt>
      <trkpt lat="50.64992" lon="3.84798">
        <ele>38.59</ele>
        <time>2017-04-23T06:21:04Z</time>
      </trkpt>
      <trkpt lat="50.65004" lon="3.84766">
        <ele>37.63</ele>
        <time>2017-04-23T06:21:19Z</time>
      </trkpt>
      <trkpt lat="50.65014" lon="3.8473">
        <ele>36.19</ele>
        <time>2017-04-23T06:21:36Z</time>
      </trkpt>
      <trkpt lat="50.65026" lon="3.84693">
        <ele>35.23</ele>
        <time>2017-04-23T06:21:56Z</time>
      </trkpt>
      <trkpt lat="50.65036" lon="3.84661">
        <ele>34.74</ele>
        <time>2017-04-23T06:22:12Z</time>
      </trkpt>
      <trkpt lat="50.65046" lon="3.8463">
        <ele>34.26</ele>
        <time>2017-04-23T06:22:28Z</time>
      </trkpt>
      <trkpt lat="50.65051" lon="3.84624">
        <ele>34.26</ele>
        <time>2017-04-23T06:22:34Z</time>
      </trkpt>
      <trkpt lat="50.65068" lon="3.84643">
        <ele>34.26</ele>
        <time>2017-04-23T06:22:47Z</time>
      </trkpt>
      <trkpt lat="50.6508" lon="3.84654">
        <ele>34.26</ele>
        <time>2017-04-23T06:22:59Z</time>
      </trkpt>
      <trkpt lat="50.651" lon="3.84673">
        <ele>34.26</ele>
        <time>2017-04-23T06:23:18Z</time>
      </trkpt>
      <trkpt lat="50.65111" lon="3.84687">
        <ele>34.26</ele>
        <time>2017-04-23T06:23:28Z</time>
      </trkpt>
      <trkpt lat="50.65132" lon="3.84703">
        <ele>34.26</ele>
        <time>2017-04-23T06:23:46Z</time>
      </trkpt>
      <trkpt lat="50.6515" lon="3.84713">
        <ele>34.26</ele>
        <time>2017-04-23T06:24:01Z</time>
      </trkpt>
      <trkpt lat="50.65175" lon="3.84723">
        <ele>34.26</ele>
        <time>2017-04-23T06:24:21Z</time>
      </trkpt>
      <trkpt lat="50.65202" lon="3.84734">
        <ele>33.78</ele>
        <time>2017-04-23T06:24:42Z</time>
      </trkpt>
      <trkpt lat="50.65223" lon="3.84744">
        <ele>33.3</ele>
        <time>2017-04-23T06:24:59Z</time>
      </trkpt>
      <trkpt lat="50.65248" lon="3.84757">
        <ele>33.3</ele>
        <time>2017-04-23T06:25:17Z</time>
      </trkpt>
      <trkpt lat="50.65278" lon="3.84769">
        <ele>32.34</ele>
        <time>2017-04-23T06:25:38Z</time>
      </trkpt>
      <trkpt lat="50.65301" lon="3.84779">
        <ele>31.86</ele>
        <time>2017-04-23T06:25:54Z</time>
      </trkpt>
      <trkpt lat="50.65318" lon="3.84789">
        <ele>31.38</ele>
        <time>2017-04-23T06:26:11Z</time>
      </trkpt>
      <trkpt lat="50.65334" lon="3.84796">
        <ele>30.9</ele>
        <time>2017-04-23T06:26:25Z</time>
      </trkpt>
      <trkpt lat="50.65335" lon="3.84797">
        <ele>30.9</ele>
        <time>2017-04-23T06:26:27Z</time>
      </trkpt>
      <trkpt lat="50.65361" lon="3.84804">
        <ele>29.94</ele>
        <time>2017-04-23T06:26:44Z</time>
      </trkpt>
      <trkpt lat="50.65379" lon="3.84799">
        <ele>29.46</ele>
        <time>2017-04-23T06:26:59Z</time>
      </trkpt>
      <trkpt lat="50.65388" lon="3.84794">
        <ele>29.46</ele>
        <time>2017-04-23T06:27:06Z</time>
      </trkpt>
      <trkpt lat="50.65397" lon="3.84789">
        <ele>29.46</ele>
        <time>2017-04-23T06:27:12Z</time>
      </trkpt>
      <trkpt lat="50.65404" lon="3.84789">
        <ele>29.46</ele>
        <time>2017-04-23T06:27:18Z</time>
      </trkpt>
      <trkpt lat="50.65425" lon="3.84789">
        <ele>28.98</ele>
        <time>2017-04-23T06:27:33Z</time>
      </trkpt>
      <trkpt lat="50.65442" lon="3.84794">
        <ele>28.98</ele>
        <time>2017-04-23T06:27:46Z</time>
      </trkpt>
      <trkpt lat="50.6547" lon="3.84799">
        <ele>28.5</ele>
        <time>2017-04-23T06:28:02Z</time>
      </trkpt>
      <trkpt lat="50.6549" lon="3.84804">
        <ele>28.5</ele>
        <time>2017-04-23T06:28:19Z</time>
      </trkpt>
      <trkpt lat="50.65514" lon="3.84811">
        <ele>28.5</ele>
        <time>2017-04-23T06:28:36Z</time>
      </trkpt>
      <trkpt lat="50.65534" lon="3.84816">
        <ele>28.5</ele>
        <time>2017-04-23T06:28:49Z</time>
      </trkpt>
      <trkpt lat="50.65563" lon="3.84824">
        <ele>28.5</ele>
        <time>2017-04-23T06:29:09Z</time>
      </trkpt>
      <trkpt lat="50.65586" lon="3.84828">
        <ele>28.02</ele>
        <time>2017-04-23T06:29:27Z</time>
      </trkpt>
      <trkpt lat="50.65612" lon="3.84833">
        <ele>28.02</ele>
        <time>2017-04-23T06:29:44Z</time>
      </trkpt>
      <trkpt lat="50.65627" lon="3.84838">
        <ele>27.53</ele>
        <time>2017-04-23T06:29:56Z</time>
      </trkpt>
      <trkpt lat="50.65633" lon="3.8484">
        <ele>27.53</ele>
        <time>2017-04-23T06:30:00Z</time>
      </trkpt>
      <trkpt lat="50.6566" lon="3.84843">
        <ele>27.53</ele>
        <time>2017-04-23T06:30:18Z</time>
      </trkpt>
      <trkpt lat="50.65684" lon="3.84836">
        <ele>27.53</ele>
        <time>2017-04-23T06:30:38Z</time>
      </trkpt>
      <trkpt lat="50.65703" lon="3.84828">
        <ele>27.53</ele>
        <time>2017-04-23T06:30:54Z</time>
      </trkpt>
      <trkpt lat="50.65721" lon="3.84827">
        <ele>27.53</ele>
        <time>2017-04-23T06:31:08Z</time>
      </trkpt>
      <trkpt lat="50.65742" lon="3.84823">
        <ele>27.05</ele>
        <time>2017-04-23T06:31:23Z</time>
      </trkpt>
      <trkpt lat="50.65764" lon="3.84823">
        <ele>27.05</ele>
        <time>2017-04-23T06:31:38Z</time>
      </trkpt>
      <trkpt lat="50.65786" lon="3.84831">
        <ele>27.05</ele>
        <time>2017-04-23T06:31:54Z</time>
      </trkpt>
      <trkpt lat="50.65787" lon="3.84831">
        <ele>27.05</ele>
        <time>2017-04-23T06:31:55Z</time>
      </trkpt>
      <trkpt lat="50.65791" lon="3.84834">
        <ele>27.05</ele>
        <time>2017-04-23T06:31:59Z</time>
      </trkpt>
      <trkpt lat="50.65797" lon="3.8484">
        <ele>27.05</ele>
        <time>2017-04-23T06:32:05Z</time>
      </trkpt>
      <trkpt lat="50.65815" lon="3.84858">
        <ele>27.05</ele>
        <time>2017-04-23T06:32:19Z</time>
      </trkpt>
      <trkpt lat="50.65833" lon="3.84884">
        <ele>27.05</ele>
        <time>2017-04-23T06:32:35Z</time>
      </trkpt>
      <trkpt lat="50.65848" lon="3.84909">
        <ele>27.05</ele>
        <time>2017-04-23T06:32:51Z</time>
      </trkpt>
      <trkpt lat="50.65853" lon="3.8492">
        <ele>27.05</ele>
        <time>2017-04-23T06:32:58Z</time>
      </trkpt>
      <trkpt lat="50.65861" lon="3.84932">
        <ele>27.05</ele>
        <time>2017-04-23T06:33:04Z</time>
      </trkpt>
      <trkpt lat="50.65877" lon="3.84961">
        <ele>27.05</ele>
        <time>2017-04-23T06:33:21Z</time>
      </trkpt>
      <trkpt lat="50.65892" lon="3.84989">
        <ele>27.05</ele>
        <time>2017-04-23T06:33:37Z</time>
      </trkpt>
      <trkpt lat="50.65896" lon="3.84998">
        <ele>27.05</ele>
        <time>2017-04-23T06:33:43Z</time>
      </trkpt>
      <trkpt lat="50.659" lon="3.85003">
        <ele>28.02</ele>
        <time>2017-04-23T06:33:47Z</time>
      </trkpt>
      <trkpt lat="50.65905" lon="3.85006">
        <ele>28.02</ele>
        <time>2017-04-23T06:33:52Z</time>
      </trkpt>
      <trkpt lat="50.65916" lon="3.85008">
        <ele>28.02</ele>
        <time>2017-04-23T06:34:02Z</time>
      </trkpt>
      <trkpt lat="50.65933" lon="3.84997">
        <ele>28.5</ele>
        <time>2017-04-23T06:34:20Z</time>
      </trkpt>
      <trkpt lat="50.65958" lon="3.84978">
        <ele>28.98</ele>
        <time>2017-04-23T06:34:38Z</time>
      </trkpt>
      <trkpt lat="50.65987" lon="3.84958">
        <ele>29.46</ele>
        <time>2017-04-23T06:34:57Z</time>
      </trkpt>
      <trkpt lat="50.66006" lon="3.84937">
        <ele>29.94</ele>
        <time>2017-04-23T06:35:14Z</time>
      </trkpt>
      <trkpt lat="50.66034" lon="3.84912">
        <ele>31.38</ele>
        <time>2017-04-23T06:35:35Z</time>
      </trkpt>
      <trkpt lat="50.66054" lon="3.84901">
        <ele>32.34</ele>
        <time>2017-04-23T06:35:51Z</time>
      </trkpt>
      <trkpt lat="50.66075" lon="3.84906">
        <ele>32.82</ele>
        <time>2017-04-23T06:36:07Z</time>
      </trkpt>
      <trkpt lat="50.66093" lon="3.84919">
        <ele>32.82</ele>
        <time>2017-04-23T06:36:21Z</time>
      </trkpt>
      <trkpt lat="50.66102" lon="3.84933">
        <ele>33.3</ele>
        <time>2017-04-23T06:36:32Z</time>
      </trkpt>
      <trkpt lat="50.66115" lon="3.84959">
        <ele>33.3</ele>
        <time>2017-04-23T06:36:47Z</time>
      </trkpt>
      <trkpt lat="50.66118" lon="3.84963">
        <ele>33.3</ele>
        <time>2017-04-23T06:36:49Z</time>
      </trkpt>
      <trkpt lat="50.66122" lon="3.84971">
        <ele>33.3</ele>
        <time>2017-04-23T06:36:55Z</time>
      </trkpt>
      <trkpt lat="50.66145" lon="3.84994">
        <ele>33.78</ele>
        <time>2017-04-23T06:37:11Z</time>
      </trkpt>
      <trkpt lat="50.66167" lon="3.85002">
        <ele>33.78</ele>
        <time>2017-04-23T06:37:25Z</time>
      </trkpt>
      <trkpt lat="50.66188" lon="3.85004">
        <ele>34.26</ele>
        <time>2017-04-23T06:37:41Z</time>
      </trkpt>
      <trkpt lat="50.66209" lon="3.85011">
        <ele>34.74</ele>
        <time>2017-04-23T06:37:57Z</time>
      </trkpt>
      <trkpt lat="50.66222" lon="3.85018">
        <ele>34.74</ele>
        <time>2017-04-23T06:38:09Z</time>
      </trkpt>
      <trkpt lat="50.66243" lon="3.85031">
        <ele>34.74</ele>
        <time>2017-04-23T06:38:24Z</time>
      </trkpt>
      <trkpt lat="50.66263" lon="3.85046">
        <ele>35.23</ele>
        <time>2017-04-23T06:38:39Z</time>
      </trkpt>
      <trkpt lat="50.66279" lon="3.85059">
        <ele>35.23</ele>
        <time>2017-04-23T06:38:53Z</time>
      </trkpt>
      <trkpt lat="50.66297" lon="3.85072">
        <ele>35.71</ele>
        <time>2017-04-23T06:39:08Z</time>
      </trkpt>
      <trkpt lat="50.66312" lon="3.85083">
        <ele>35.71</ele>
        <time>2017-04-23T06:39:21Z</time>
      </trkpt>
      <trkpt lat="50.66315" lon="3.85085">
        <ele>35.71</ele>
        <time>2017-04-23T06:39:23Z</time>
      </trkpt>
      <trkpt lat="50.66319" lon="3.85089">
        <ele>35.71</ele>
        <time>2017-04-23T06:39:28Z</time>
      </trkpt>
      <trkpt lat="50.66321" lon="3.85092">
        <ele>35.71</ele>
        <time>2017-04-23T06:39:31Z</time>
      </trkpt>
      <trkpt lat="50.6634" lon="3.85105">
        <ele>36.19</ele>
        <time>2017-04-23T06:39:44Z</time>
      </trkpt>
      <trkpt lat="50.66358" lon="3.85121">
        <ele>36.19</ele>
        <time>2017-04-23T06:39:56Z</time>
      </trkpt>
      <trkpt lat="50.66382" lon="3.85132">
        <ele>36.67</ele>
        <time>2017-04-23T06:40:16Z</time>
      </trkpt>
      <trkpt lat="50.66406" lon="3.85143">
        <ele>36.67</ele>
        <time>2017-04-23T06:40:32Z</time>
      </trkpt>
      <trkpt lat="50.66409" lon="3.85144">
        <ele>36.67</ele>
        <time>2017-04-23T06:40:35Z</time>
      </trkpt>
      <trkpt lat="50.6641" lon="3.85144">
        <ele>37.15</ele>
        <time>2017-04-23T06:40:36Z</time>
      </trkpt>
      <trkpt lat="50.66428" lon="3.85151">
        <ele>37.63</ele>
        <time>2017-04-23T06:40:50Z</time>
      </trkpt>
      <trkpt lat="50.66429" lon="3.85151">
        <ele>37.63</ele>
        <time>2017-04-23T06:40:51Z</time>
      </trkpt>
      <trkpt lat="50.66431" lon="3.85151">
        <ele>38.11</ele>
        <time>2017-04-23T06:40:52Z</time>
      </trkpt>
      <trkpt lat="50.66432" lon="3.85151">
        <ele>38.11</ele>
        <time>2017-04-23T06:40:53Z</time>
      </trkpt>
      <trkpt lat="50.66434" lon="3.85152">
        <ele>38.11</ele>
        <time>2017-04-23T06:40:54Z</time>
      </trkpt>
      <trkpt lat="50.66435" lon="3.85151">
        <ele>38.11</ele>
        <time>2017-04-23T06:40:55Z</time>
      </trkpt>
      <trkpt lat="50.66457" lon="3.85156">
        <ele>39.55</ele>
        <time>2017-04-23T06:41:11Z</time>
      </trkpt>
      <trkpt lat="50.66475" lon="3.85161">
        <ele>39.55</ele>
        <time>2017-04-23T06:41:25Z</time>
      </trkpt>
      <trkpt lat="50.66483" lon="3.85162">
        <ele>39.55</ele>
        <time>2017-04-23T06:41:32Z</time>
      </trkpt>
      <trkpt lat="50.66485" lon="3.85162">
        <ele>39.55</ele>
        <time>2017-04-23T06:41:33Z</time>
      </trkpt>
      <trkpt lat="50.66503" lon="3.85141">
        <ele>39.55</ele>
        <time>2017-04-23T06:41:48Z</time>
      </trkpt>
      <trkpt lat="50.66519" lon="3.85115">
        <ele>40.03</ele>
        <time>2017-04-23T06:42:04Z</time>
      </trkpt>
      <trkpt lat="50.66537" lon="3.8509">
        <ele>40.51</ele>
        <time>2017-04-23T06:42:21Z</time>
      </trkpt>
      <trkpt lat="50.66549" lon="3.85071">
        <ele>40.99</ele>
        <time>2017-04-23T06:42:35Z</time>
      </trkpt>
      <trkpt lat="50.66567" lon="3.85044">
        <ele>41.95</ele>
        <time>2017-04-23T06:42:53Z</time>
      </trkpt>
      <trkpt lat="50.66584" lon="3.8502">
        <ele>42.92</ele>
        <time>2017-04-23T06:43:09Z</time>
      </trkpt>
      <trkpt lat="50.66602" lon="3.84996">
        <ele>43.4</ele>
        <time>2017-04-23T06:43:26Z</time>
      </trkpt>
      <trkpt lat="50.66618" lon="3.84971">
        <ele>44.36</ele>
        <time>2017-04-23T06:43:43Z</time>
      </trkpt>
      <trkpt lat="50.66633" lon="3.84948">
        <ele>45.32</ele>
        <time>2017-04-23T06:43:59Z</time>
      </trkpt>
      <trkpt lat="50.66649" lon="3.84923">
        <ele>45.8</ele>
        <time>2017-04-23T06:44:16Z</time>
      </trkpt>
      <trkpt lat="50.66665" lon="3.84902">
        <ele>46.76</ele>
        <time>2017-04-23T06:44:30Z</time>
      </trkpt>
      <trkpt lat="50.66679" lon="3.84878">
        <ele>46.76</ele>
        <time>2017-04-23T06:44:46Z</time>
      </trkpt>
      <trkpt lat="50.66695" lon="3.84853">
        <ele>48.2</ele>
        <time>2017-04-23T06:45:03Z</time>
      </trkpt>
      <trkpt lat="50.66706" lon="3.84835">
        <ele>48.68</ele>
        <time>2017-04-23T06:45:15Z</time>
      </trkpt>
      <trkpt lat="50.66724" lon="3.84805">
        <ele>50.13</ele>
        <time>2017-04-23T06:45:33Z</time>
      </trkpt>
      <trkpt lat="50.66741" lon="3.84778">
        <ele>51.09</ele>
        <time>2017-04-23T06:45:50Z</time>
      </trkpt>
      <trkpt lat="50.66759" lon="3.84756">
        <ele>52.53</ele>
        <time>2017-04-23T06:46:06Z</time>
      </trkpt>
      <trkpt lat="50.66776" lon="3.84735">
        <ele>53.97</ele>
        <time>2017-04-23T06:46:22Z</time>
      </trkpt>
      <trkpt lat="50.66792" lon="3.84708">
        <ele>55.89</ele>
        <time>2017-04-23T06:46:41Z</time>
      </trkpt>
      <trkpt lat="50.66808" lon="3.84683">
        <ele>56.86</ele>
        <time>2017-04-23T06:46:59Z</time>
      </trkpt>
      <trkpt lat="50.66825" lon="3.84656">
        <ele>58.78</ele>
        <time>2017-04-23T06:47:18Z</time>
      </trkpt>
      <trkpt lat="50.66842" lon="3.84633">
        <ele>60.22</ele>
        <time>2017-04-23T06:47:34Z</time>
      </trkpt>
      <trkpt lat="50.66862" lon="3.84607">
        <ele>61.18</ele>
        <time>2017-04-23T06:47:51Z</time>
      </trkpt>
      <trkpt lat="50.66876" lon="3.84585">
        <ele>61.66</ele>
        <time>2017-04-23T06:48:05Z</time>
      </trkpt>
      <trkpt lat="50.66889" lon="3.8457">
        <ele>61.66</ele>
        <time>2017-04-23T06:48:17Z</time>
      </trkpt>
      <trkpt lat="50.6689" lon="3.84568">
        <ele>61.66</ele>
        <time>2017-04-23T06:48:18Z</time>
      </trkpt>
      <trkpt lat="50.66908" lon="3.84538">
        <ele>61.66</ele>
        <time>2017-04-23T06:48:37Z</time>
      </trkpt>
      <trkpt lat="50.66913" lon="3.84529">
        <ele>60.22</ele>
        <time>2017-04-23T06:48:43Z</time>
      </trkpt>
      <trkpt lat="50.66914" lon="3.84522">
        <ele>59.74</ele>
        <time>2017-04-23T06:48:47Z</time>
      </trkpt>
      <trkpt lat="50.66913" lon="3.84516">
        <ele>59.74</ele>
        <time>2017-04-23T06:48:50Z</time>
      </trkpt>
      <trkpt lat="50.66912" lon="3.84515">
        <ele>59.74</ele>
        <time>2017-04-23T06:48:51Z</time>
      </trkpt>
      <trkpt lat="50.6691" lon="3.84513">
        <ele>59.74</ele>
        <time>2017-04-23T06:48:52Z</time>
      </trkpt>
      <trkpt lat="50.66909" lon="3.84512">
        <ele>59.74</ele>
        <time>2017-04-23T06:48:53Z</time>
      </trkpt>
      <trkpt lat="50.66907" lon="3.8451">
        <ele>59.74</ele>
        <time>2017-04-23T06:48:54Z</time>
      </trkpt>
      <trkpt lat="50.66894" lon="3.84495">
        <ele>60.7</ele>
        <time>2017-04-23T06:49:06Z</time>
      </trkpt>
      <trkpt lat="50.66872" lon="3.84474">
        <ele>61.18</ele>
        <time>2017-04-23T06:49:24Z</time>
      </trkpt>
      <trkpt lat="50.66851" lon="3.84454">
        <ele>61.66</ele>
        <time>2017-04-23T06:49:41Z</time>
      </trkpt>
      <trkpt lat="50.66829" lon="3.84434">
        <ele>62.14</ele>
        <time>2017-04-23T06:49:59Z</time>
      </trkpt>
      <trkpt lat="50.66811" lon="3.84415">
        <ele>59.74</ele>
        <time>2017-04-23T06:50:16Z</time>
      </trkpt>
      <trkpt lat="50.66797" lon="3.84398">
        <ele>58.3</ele>
        <time>2017-04-23T06:50:30Z</time>
      </trkpt>
      <trkpt lat="50.66787" lon="3.84381">
        <ele>55.89</ele>
        <time>2017-04-23T06:50:44Z</time>
      </trkpt>
      <trkpt lat="50.66785" lon="3.84379">
        <ele>55.41</ele>
        <time>2017-04-23T06:50:46Z</time>
      </trkpt>
      <trkpt lat="50.66767" lon="3.84361">
        <ele>53.49</ele>
        <time>2017-04-23T06:51:02Z</time>
      </trkpt>
      <trkpt lat="50.66739" lon="3.84338">
        <ele>52.05</ele>
        <time>2017-04-23T06:51:21Z</time>
      </trkpt>
      <trkpt lat="50.6672" lon="3.84322">
        <ele>51.57</ele>
        <time>2017-04-23T06:51:36Z</time>
      </trkpt>
      <trkpt lat="50.66694" lon="3.84295">
        <ele>51.09</ele>
        <time>2017-04-23T06:51:56Z</time>
      </trkpt>
      <trkpt lat="50.66676" lon="3.84276">
        <ele>50.61</ele>
        <time>2017-04-23T06:52:12Z</time>
      </trkpt>
      <trkpt lat="50.66653" lon="3.84251">
        <ele>48.68</ele>
        <time>2017-04-23T06:52:33Z</time>
      </trkpt>
      <trkpt lat="50.66628" lon="3.84228">
        <ele>46.76</ele>
        <time>2017-04-23T06:52:52Z</time>
      </trkpt>
      <trkpt lat="50.66608" lon="3.84206">
        <ele>45.8</ele>
        <time>2017-04-23T06:53:10Z</time>
      </trkpt>
      <trkpt lat="50.66587" lon="3.84186">
        <ele>45.32</ele>
        <time>2017-04-23T06:53:27Z</time>
      </trkpt>
      <trkpt lat="50.66562" lon="3.84169">
        <ele>44.84</ele>
        <time>2017-04-23T06:53:46Z</time>
      </trkpt>
      <trkpt lat="50.66538" lon="3.84163">
        <ele>44.84</ele>
        <time>2017-04-23T06:54:03Z</time>
      </trkpt>
      <trkpt lat="50.66512" lon="3.84161">
        <ele>44.84</ele>
        <time>2017-04-23T06:54:22Z</time>
      </trkpt>
      <trkpt lat="50.66485" lon="3.84157">
        <ele>46.28</ele>
        <time>2017-04-23T06:54:41Z</time>
      </trkpt>
      <trkpt lat="50.66459" lon="3.84155">
        <ele>47.24</ele>
        <time>2017-04-23T06:54:59Z</time>
      </trkpt>
      <trkpt lat="50.66436" lon="3.84152">
        <ele>48.2</ele>
        <time>2017-04-23T06:55:17Z</time>
      </trkpt>
      <trkpt lat="50.6641" lon="3.84148">
        <ele>49.16</ele>
        <time>2017-04-23T06:55:35Z</time>
      </trkpt>
      <trkpt lat="50.66386" lon="3.84142">
        <ele>49.16</ele>
        <time>2017-04-23T06:55:55Z</time>
      </trkpt>
      <trkpt lat="50.66354" lon="3.84137">
        <ele>49.16</ele>
        <time>2017-04-23T06:56:16Z</time>
      </trkpt>
      <trkpt lat="50.66327" lon="3.84132">
        <ele>49.16</ele>
        <time>2017-04-23T06:56:33Z</time>
      </trkpt>
      <trkpt lat="50.66314" lon="3.8413">
        <ele>50.61</ele>
        <time>2017-04-23T06:56:43Z</time>
      </trkpt>
      <trkpt lat="50.66309" lon="3.84128">
        <ele>49.16</ele>
        <time>2017-04-23T06:56:46Z</time>
      </trkpt>
      <trkpt lat="50.66287" lon="3.84126">
        <ele>48.68</ele>
        <time>2017-04-23T06:57:00Z</time>
      </trkpt>
      <trkpt lat="50.66261" lon="3.8412">
        <ele>47.24</ele>
        <time>2017-04-23T06:57:20Z</time>
      </trkpt>
      <trkpt lat="50.66233" lon="3.84117">
        <ele>46.28</ele>
        <time>2017-04-23T06:57:38Z</time>
      </trkpt>
      <trkpt lat="50.66205" lon="3.84113">
        <ele>45.32</ele>
        <time>2017-04-23T06:57:59Z</time>
      </trkpt>
      <trkpt lat="50.66176" lon="3.84108">
        <ele>44.84</ele>
        <time>2017-04-23T06:58:19Z</time>
      </trkpt>
      <trkpt lat="50.66148" lon="3.84106">
        <ele>44.36</ele>
        <time>2017-04-23T06:58:39Z</time>
      </trkpt>
      <trkpt lat="50.66116" lon="3.841">
        <ele>43.88</ele>
        <time>2017-04-23T06:59:01Z</time>
      </trkpt>
      <trkpt lat="50.6609" lon="3.84096">
        <ele>43.4</ele>
        <time>2017-04-23T06:59:20Z</time>
      </trkpt>
      <trkpt lat="50.6606" lon="3.84094">
        <ele>41.95</ele>
        <time>2017-04-23T06:59:40Z</time>
      </trkpt>
      <trkpt lat="50.66035" lon="3.84089">
        <ele>41.47</ele>
        <time>2017-04-23T06:59:58Z</time>
      </trkpt>
      <trkpt lat="50.66008" lon="3.84084">
        <ele>40.51</ele>
        <time>2017-04-23T07:00:16Z</time>
      </trkpt>
      <trkpt lat="50.65982" lon="3.84082">
        <ele>39.55</ele>
        <time>2017-04-23T07:00:34Z</time>
      </trkpt>
      <trkpt lat="50.65962" lon="3.84079">
        <ele>39.07</ele>
        <time>2017-04-23T07:00:50Z</time>
      </trkpt>
      <trkpt lat="50.65961" lon="3.84079">
        <ele>39.07</ele>
        <time>2017-04-23T07:00:53Z</time>
      </trkpt>
      <trkpt lat="50.6596" lon="3.84079">
        <ele>39.07</ele>
        <time>2017-04-23T07:00:54Z</time>
      </trkpt>
      <trkpt lat="50.65958" lon="3.84079">
        <ele>39.07</ele>
        <time>2017-04-23T07:00:55Z</time>
      </trkpt>
      <trkpt lat="50.65957" lon="3.84079">
        <ele>39.07</ele>
        <time>2017-04-23T07:00:56Z</time>
      </trkpt>
      <trkpt lat="50.65956" lon="3.84078">
        <ele>39.07</ele>
        <time>2017-04-23T07:00:57Z</time>
      </trkpt>
      <trkpt lat="50.6593" lon="3.84056">
        <ele>38.11</ele>
        <time>2017-04-23T07:01:16Z</time>
      </trkpt>
      <trkpt lat="50.65926" lon="3.84049">
        <ele>38.11</ele>
        <time>2017-04-23T07:01:20Z</time>
      </trkpt>
      <trkpt lat="50.65925" lon="3.84042">
        <ele>38.11</ele>
        <time>2017-04-23T07:01:23Z</time>
      </trkpt>
      <trkpt lat="50.65925" lon="3.84039">
        <ele>38.11</ele>
        <time>2017-04-23T07:01:24Z</time>
      </trkpt>
      <trkpt lat="50.65926" lon="3.84038">
        <ele>38.11</ele>
        <time>2017-04-23T07:01:25Z</time>
      </trkpt>
      <trkpt lat="50.65926" lon="3.84036">
        <ele>38.11</ele>
        <time>2017-04-23T07:01:26Z</time>
      </trkpt>
      <trkpt lat="50.65926" lon="3.84034">
        <ele>38.11</ele>
        <time>2017-04-23T07:01:27Z</time>
      </trkpt>
      <trkpt lat="50.65927" lon="3.84032">
        <ele>38.11</ele>
        <time>2017-04-23T07:01:28Z</time>
      </trkpt>
      <trkpt lat="50.65928" lon="3.8403">
        <ele>38.11</ele>
        <time>2017-04-23T07:01:29Z</time>
      </trkpt>
      <trkpt lat="50.65929" lon="3.84028">
        <ele>38.11</ele>
        <time>2017-04-23T07:01:30Z</time>
      </trkpt>
      <trkpt lat="50.65946" lon="3.84004">
        <ele>37.63</ele>
        <time>2017-04-23T07:01:47Z</time>
      </trkpt>
      <trkpt lat="50.65964" lon="3.83958">
        <ele>37.15</ele>
        <time>2017-04-23T07:02:09Z</time>
      </trkpt>
      <trkpt lat="50.65972" lon="3.83921">
        <ele>37.15</ele>
        <time>2017-04-23T07:02:27Z</time>
      </trkpt>
      <trkpt lat="50.65979" lon="3.83885">
        <ele>37.15</ele>
        <time>2017-04-23T07:02:45Z</time>
      </trkpt>
      <trkpt lat="50.65983" lon="3.83867">
        <ele>37.15</ele>
        <time>2017-04-23T07:02:53Z</time>
      </trkpt>
      <trkpt lat="50.65983" lon="3.83864">
        <ele>37.15</ele>
        <time>2017-04-23T07:02:54Z</time>
      </trkpt>
      <trkpt lat="50.65983" lon="3.83862">
        <ele>37.15</ele>
        <time>2017-04-23T07:02:55Z</time>
      </trkpt>
      <trkpt lat="50.65983" lon="3.8386">
        <ele>37.15</ele>
        <time>2017-04-23T07:02:56Z</time>
      </trkpt>
      <trkpt lat="50.65983" lon="3.83857">
        <ele>37.15</ele>
        <time>2017-04-23T07:02:57Z</time>
      </trkpt>
      <trkpt lat="50.65986" lon="3.83822">
        <ele>37.15</ele>
        <time>2017-04-23T07:03:14Z</time>
      </trkpt>
      <trkpt lat="50.65984" lon="3.83815">
        <ele>37.15</ele>
        <time>2017-04-23T07:03:21Z</time>
      </trkpt>
      <trkpt lat="50.65984" lon="3.83815">
        <ele>36.67</ele>
        <time>2017-04-23T07:03:36Z</time>
      </trkpt>
      <trkpt lat="50.65983" lon="3.83815">
        <ele>36.67</ele>
        <time>2017-04-23T07:03:57Z</time>
      </trkpt>
      <trkpt lat="50.65983" lon="3.83813">
        <ele>36.67</ele>
        <time>2017-04-23T07:04:10Z</time>
      </trkpt>
      <trkpt lat="50.65987" lon="3.83788">
        <ele>36.67</ele>
        <time>2017-04-23T07:04:24Z</time>
      </trkpt>
      <trkpt lat="50.6599" lon="3.83759">
        <ele>36.67</ele>
        <time>2017-04-23T07:04:39Z</time>
      </trkpt>
      <trkpt lat="50.65991" lon="3.8372">
        <ele>36.67</ele>
        <time>2017-04-23T07:04:58Z</time>
      </trkpt>
      <trkpt lat="50.65993" lon="3.83684">
        <ele>36.67</ele>
        <time>2017-04-23T07:05:15Z</time>
      </trkpt>
      <trkpt lat="50.65995" lon="3.83647">
        <ele>36.19</ele>
        <time>2017-04-23T07:05:32Z</time>
      </trkpt>
      <trkpt lat="50.66005" lon="3.83605">
        <ele>35.71</ele>
        <time>2017-04-23T07:05:51Z</time>
      </trkpt>
      <trkpt lat="50.66013" lon="3.83571">
        <ele>35.23</ele>
        <time>2017-04-23T07:06:08Z</time>
      </trkpt>
      <trkpt lat="50.6602" lon="3.83535">
        <ele>33.78</ele>
        <time>2017-04-23T07:06:25Z</time>
      </trkpt>
      <trkpt lat="50.66028" lon="3.83491">
        <ele>32.82</ele>
        <time>2017-04-23T07:06:45Z</time>
      </trkpt>
      <trkpt lat="50.66037" lon="3.83447">
        <ele>32.34</ele>
        <time>2017-04-23T07:07:05Z</time>
      </trkpt>
      <trkpt lat="50.66048" lon="3.83399">
        <ele>31.86</ele>
        <time>2017-04-23T07:07:27Z</time>
      </trkpt>
      <trkpt lat="50.66054" lon="3.83361">
        <ele>31.38</ele>
        <time>2017-04-23T07:07:46Z</time>
      </trkpt>
      <trkpt lat="50.6606" lon="3.83322">
        <ele>30.9</ele>
        <time>2017-04-23T07:08:04Z</time>
      </trkpt>
      <trkpt lat="50.66068" lon="3.83281">
        <ele>29.94</ele>
        <time>2017-04-23T07:08:23Z</time>
      </trkpt>
      <trkpt lat="50.66076" lon="3.83241">
        <ele>29.46</ele>
        <time>2017-04-23T07:08:42Z</time>
      </trkpt>
      <trkpt lat="50.66094" lon="3.83201">
        <ele>28.98</ele>
        <time>2017-04-23T07:09:04Z</time>
      </trkpt>
      <trkpt lat="50.66109" lon="3.83172">
        <ele>28.02</ele>
        <time>2017-04-23T07:09:22Z</time>
      </trkpt>
      <trkpt lat="50.6613" lon="3.83137">
        <ele>27.53</ele>
        <time>2017-04-23T07:09:43Z</time>
      </trkpt>
      <trkpt lat="50.66149" lon="3.831">
        <ele>26.57</ele>
        <time>2017-04-23T07:10:03Z</time>
      </trkpt>
      <trkpt lat="50.66158" lon="3.83064">
        <ele>26.57</ele>
        <time>2017-04-23T07:10:20Z</time>
      </trkpt>
      <trkpt lat="50.66169" lon="3.83022">
        <ele>25.61</ele>
        <time>2017-04-23T07:10:40Z</time>
      </trkpt>
      <trkpt lat="50.66178" lon="3.82985">
        <ele>25.13</ele>
        <time>2017-04-23T07:10:58Z</time>
      </trkpt>
      <trkpt lat="50.66188" lon="3.82949">
        <ele>24.65</ele>
        <time>2017-04-23T07:11:15Z</time>
      </trkpt>
      <trkpt lat="50.662" lon="3.82912">
        <ele>24.17</ele>
        <time>2017-04-23T07:11:33Z</time>
      </trkpt>
      <trkpt lat="50.66214" lon="3.82874">
        <ele>24.17</ele>
        <time>2017-04-23T07:11:54Z</time>
      </trkpt>
      <trkpt lat="50.66229" lon="3.82837">
        <ele>24.17</ele>
        <time>2017-04-23T07:12:12Z</time>
      </trkpt>
      <trkpt lat="50.66235" lon="3.82797">
        <ele>23.69</ele>
        <time>2017-04-23T07:12:31Z</time>
      </trkpt>
      <trkpt lat="50.66241" lon="3.82756">
        <ele>23.21</ele>
        <time>2017-04-23T07:12:49Z</time>
      </trkpt>
      <trkpt lat="50.66241" lon="3.82716">
        <ele>23.21</ele>
        <time>2017-04-23T07:13:07Z</time>
      </trkpt>
      <trkpt lat="50.6624" lon="3.82676">
        <ele>22.73</ele>
        <time>2017-04-23T07:13:25Z</time>
      </trkpt>
      <trkpt lat="50.66241" lon="3.82637">
        <ele>22.73</ele>
        <time>2017-04-23T07:13:42Z</time>
      </trkpt>
      <trkpt lat="50.66242" lon="3.82593">
        <ele>22.73</ele>
        <time>2017-04-23T07:14:02Z</time>
      </trkpt>
      <trkpt lat="50.66241" lon="3.82553">
        <ele>22.73</ele>
        <time>2017-04-23T07:14:20Z</time>
      </trkpt>
      <trkpt lat="50.66239" lon="3.82506">
        <ele>22.73</ele>
        <time>2017-04-23T07:14:41Z</time>
      </trkpt>
      <trkpt lat="50.66229" lon="3.82463">
        <ele>22.25</ele>
        <time>2017-04-23T07:15:02Z</time>
      </trkpt>
      <trkpt lat="50.66223" lon="3.82422">
        <ele>22.25</ele>
        <time>2017-04-23T07:15:20Z</time>
      </trkpt>
      <trkpt lat="50.6622" lon="3.82382">
        <ele>22.25</ele>
        <time>2017-04-23T07:15:39Z</time>
      </trkpt>
      <trkpt lat="50.66218" lon="3.82337">
        <ele>22.25</ele>
        <time>2017-04-23T07:16:00Z</time>
      </trkpt>
      <trkpt lat="50.66218" lon="3.82297">
        <ele>23.21</ele>
        <time>2017-04-23T07:16:18Z</time>
      </trkpt>
      <trkpt lat="50.66214" lon="3.82265">
        <ele>23.69</ele>
        <time>2017-04-23T07:16:33Z</time>
      </trkpt>
      <trkpt lat="50.66203" lon="3.82231">
        <ele>23.69</ele>
        <time>2017-04-23T07:16:50Z</time>
      </trkpt>
      <trkpt lat="50.6619" lon="3.82197">
        <ele>24.17</ele>
        <time>2017-04-23T07:17:08Z</time>
      </trkpt>
      <trkpt lat="50.66188" lon="3.82189">
        <ele>24.17</ele>
        <time>2017-04-23T07:17:12Z</time>
      </trkpt>
      <trkpt lat="50.66187" lon="3.82187">
        <ele>24.17</ele>
        <time>2017-04-23T07:17:13Z</time>
      </trkpt>
      <trkpt lat="50.66186" lon="3.82185">
        <ele>24.17</ele>
        <time>2017-04-23T07:17:14Z</time>
      </trkpt>
      <trkpt lat="50.66186" lon="3.8218">
        <ele>24.17</ele>
        <time>2017-04-23T07:17:16Z</time>
      </trkpt>
      <trkpt lat="50.6619" lon="3.82144">
        <ele>24.17</ele>
        <time>2017-04-23T07:17:34Z</time>
      </trkpt>
      <trkpt lat="50.66191" lon="3.82142">
        <ele>24.17</ele>
        <time>2017-04-23T07:17:35Z</time>
      </trkpt>
      <trkpt lat="50.66191" lon="3.82141">
        <ele>24.17</ele>
        <time>2017-04-23T07:17:36Z</time>
      </trkpt>
      <trkpt lat="50.662" lon="3.82102">
        <ele>24.17</ele>
        <time>2017-04-23T07:17:54Z</time>
      </trkpt>
      <trkpt lat="50.66204" lon="3.82071">
        <ele>24.17</ele>
        <time>2017-04-23T07:18:08Z</time>
      </trkpt>
      <trkpt lat="50.6621" lon="3.82032">
        <ele>24.17</ele>
        <time>2017-04-23T07:18:26Z</time>
      </trkpt>
      <trkpt lat="50.66217" lon="3.82002">
        <ele>24.17</ele>
        <time>2017-04-23T07:18:41Z</time>
      </trkpt>
      <trkpt lat="50.66217" lon="3.82">
        <ele>24.17</ele>
        <time>2017-04-23T07:18:42Z</time>
      </trkpt>
      <trkpt lat="50.66218" lon="3.81998">
        <ele>24.17</ele>
        <time>2017-04-23T07:18:43Z</time>
      </trkpt>
      <trkpt lat="50.66218" lon="3.81996">
        <ele>24.17</ele>
        <time>2017-04-23T07:18:44Z</time>
      </trkpt>
      <trkpt lat="50.66219" lon="3.81994">
        <ele>24.17</ele>
        <time>2017-04-23T07:18:45Z</time>
      </trkpt>
      <trkpt lat="50.6622" lon="3.81993">
        <ele>24.17</ele>
        <time>2017-04-23T07:18:46Z</time>
      </trkpt>
      <trkpt lat="50.6622" lon="3.81991">
        <ele>24.17</ele>
        <time>2017-04-23T07:18:47Z</time>
      </trkpt>
      <trkpt lat="50.66221" lon="3.81989">
        <ele>24.17</ele>
        <time>2017-04-23T07:18:48Z</time>
      </trkpt>
      <trkpt lat="50.66221" lon="3.81988">
        <ele>24.17</ele>
        <time>2017-04-23T07:18:49Z</time>
      </trkpt>
      <trkpt lat="50.66222" lon="3.81986">
        <ele>24.17</ele>
        <time>2017-04-23T07:18:50Z</time>
      </trkpt>
      <trkpt lat="50.66222" lon="3.81984">
        <ele>24.17</ele>
        <time>2017-04-23T07:18:51Z</time>
      </trkpt>
      <trkpt lat="50.66223" lon="3.81982">
        <ele>24.17</ele>
        <time>2017-04-23T07:18:52Z</time>
      </trkpt>
      <trkpt lat="50.66223" lon="3.8198">
        <ele>24.17</ele>
        <time>2017-04-23T07:18:53Z</time>
      </trkpt>
      <trkpt lat="50.66224" lon="3.81978">
        <ele>24.17</ele>
        <time>2017-04-23T07:18:54Z</time>
      </trkpt>
      <trkpt lat="50.66224" lon="3.81976">
        <ele>24.17</ele>
        <time>2017-04-23T07:18:55Z</time>
      </trkpt>
      <trkpt lat="50.66225" lon="3.81974">
        <ele>24.17</ele>
        <time>2017-04-23T07:18:56Z</time>
      </trkpt>
      <trkpt lat="50.66236" lon="3.81938">
        <ele>24.17</ele>
        <time>2017-04-23T07:19:15Z</time>
      </trkpt>
      <trkpt lat="50.6625" lon="3.8191">
        <ele>24.65</ele>
        <time>2017-04-23T07:19:31Z</time>
      </trkpt>
      <trkpt lat="50.66264" lon="3.81891">
        <ele>24.17</ele>
        <time>2017-04-23T07:19:46Z</time>
      </trkpt>
      <trkpt lat="50.66275" lon="3.81891">
        <ele>24.17</ele>
        <time>2017-04-23T07:19:56Z</time>
      </trkpt>
      <trkpt lat="50.66288" lon="3.81915">
        <ele>24.17</ele>
        <time>2017-04-23T07:20:13Z</time>
      </trkpt>
      <trkpt lat="50.66289" lon="3.81916">
        <ele>24.17</ele>
        <time>2017-04-23T07:20:14Z</time>
      </trkpt>
      <trkpt lat="50.6629" lon="3.81917">
        <ele>24.17</ele>
        <time>2017-04-23T07:20:15Z</time>
      </trkpt>
      <trkpt lat="50.66291" lon="3.81919">
        <ele>24.17</ele>
        <time>2017-04-23T07:20:16Z</time>
      </trkpt>
      <trkpt lat="50.66292" lon="3.81921">
        <ele>24.17</ele>
        <time>2017-04-23T07:20:17Z</time>
      </trkpt>
      <trkpt lat="50.66293" lon="3.81923">
        <ele>24.17</ele>
        <time>2017-04-23T07:20:18Z</time>
      </trkpt>
      <trkpt lat="50.66308" lon="3.81948">
        <ele>24.17</ele>
        <time>2017-04-23T07:20:35Z</time>
      </trkpt>
      <trkpt lat="50.66329" lon="3.81958">
        <ele>24.17</ele>
        <time>2017-04-23T07:20:50Z</time>
      </trkpt>
      <trkpt lat="50.66359" lon="3.81965">
        <ele>23.21</ele>
        <time>2017-04-23T07:21:09Z</time>
      </trkpt>
      <trkpt lat="50.66383" lon="3.81971">
        <ele>22.73</ele>
        <time>2017-04-23T07:21:27Z</time>
      </trkpt>
      <trkpt lat="50.66411" lon="3.81975">
        <ele>22.25</ele>
        <time>2017-04-23T07:21:48Z</time>
      </trkpt>
      <trkpt lat="50.66436" lon="3.81974">
        <ele>22.25</ele>
        <time>2017-04-23T07:22:07Z</time>
      </trkpt>
      <trkpt lat="50.66466" lon="3.81968">
        <ele>22.25</ele>
        <time>2017-04-23T07:22:28Z</time>
      </trkpt>
      <trkpt lat="50.66484" lon="3.81961">
        <ele>22.25</ele>
        <time>2017-04-23T07:22:43Z</time>
      </trkpt>
      <trkpt lat="50.6649" lon="3.81964">
        <ele>22.25</ele>
        <time>2017-04-23T07:22:48Z</time>
      </trkpt>
      <trkpt lat="50.66491" lon="3.81965">
        <ele>22.25</ele>
        <time>2017-04-23T07:22:49Z</time>
      </trkpt>
      <trkpt lat="50.66492" lon="3.81966">
        <ele>22.25</ele>
        <time>2017-04-23T07:22:50Z</time>
      </trkpt>
      <trkpt lat="50.66494" lon="3.81968">
        <ele>22.25</ele>
        <time>2017-04-23T07:22:51Z</time>
      </trkpt>
      <trkpt lat="50.66495" lon="3.81969">
        <ele>22.25</ele>
        <time>2017-04-23T07:22:52Z</time>
      </trkpt>
      <trkpt lat="50.66513" lon="3.81994">
        <ele>22.25</ele>
        <time>2017-04-23T07:23:08Z</time>
      </trkpt>
      <trkpt lat="50.66534" lon="3.82016">
        <ele>22.25</ele>
        <time>2017-04-23T07:23:25Z</time>
      </trkpt>
      <trkpt lat="50.66543" lon="3.82025">
        <ele>23.21</ele>
        <time>2017-04-23T07:23:33Z</time>
      </trkpt>
      <trkpt lat="50.66562" lon="3.82044">
        <ele>24.17</ele>
        <time>2017-04-23T07:23:49Z</time>
      </trkpt>
      <trkpt lat="50.66581" lon="3.82063">
        <ele>25.13</ele>
        <time>2017-04-23T07:24:06Z</time>
      </trkpt>
      <trkpt lat="50.66605" lon="3.82084">
        <ele>26.09</ele>
        <time>2017-04-23T07:24:25Z</time>
      </trkpt>
      <trkpt lat="50.66622" lon="3.82098">
        <ele>27.05</ele>
        <time>2017-04-23T07:24:40Z</time>
      </trkpt>
      <trkpt lat="50.66643" lon="3.82111">
        <ele>27.53</ele>
        <time>2017-04-23T07:24:57Z</time>
      </trkpt>
      <trkpt lat="50.66644" lon="3.8211">
        <ele>27.53</ele>
        <time>2017-04-23T07:24:58Z</time>
      </trkpt>
      <trkpt lat="50.66644" lon="3.82109">
        <ele>27.53</ele>
        <time>2017-04-23T07:24:59Z</time>
      </trkpt>
      <trkpt lat="50.66647" lon="3.82096">
        <ele>28.02</ele>
        <time>2017-04-23T07:25:06Z</time>
      </trkpt>
      <trkpt lat="50.66655" lon="3.82068">
        <ele>28.02</ele>
        <time>2017-04-23T07:25:22Z</time>
      </trkpt>
      <trkpt lat="50.66663" lon="3.82037">
        <ele>26.57</ele>
        <time>2017-04-23T07:25:36Z</time>
      </trkpt>
      <trkpt lat="50.66667" lon="3.82023">
        <ele>25.61</ele>
        <time>2017-04-23T07:25:44Z</time>
      </trkpt>
      <trkpt lat="50.66668" lon="3.82021">
        <ele>25.61</ele>
        <time>2017-04-23T07:25:45Z</time>
      </trkpt>
      <trkpt lat="50.66669" lon="3.82019">
        <ele>25.61</ele>
        <time>2017-04-23T07:25:46Z</time>
      </trkpt>
      <trkpt lat="50.66669" lon="3.82017">
        <ele>25.61</ele>
        <time>2017-04-23T07:25:47Z</time>
      </trkpt>
      <trkpt lat="50.6667" lon="3.82016">
        <ele>25.61</ele>
        <time>2017-04-23T07:25:48Z</time>
      </trkpt>
      <trkpt lat="50.6668" lon="3.81996">
        <ele>25.13</ele>
        <time>2017-04-23T07:26:01Z</time>
      </trkpt>
      <trkpt lat="50.66681" lon="3.81995">
        <ele>25.13</ele>
        <time>2017-04-23T07:26:02Z</time>
      </trkpt>
      <trkpt lat="50.66704" lon="3.81983">
        <ele>24.17</ele>
        <time>2017-04-23T07:26:18Z</time>
      </trkpt>
      <trkpt lat="50.66708" lon="3.81984">
        <ele>24.17</ele>
        <time>2017-04-23T07:26:22Z</time>
      </trkpt>
      <trkpt lat="50.66724" lon="3.81997">
        <ele>24.17</ele>
        <time>2017-04-23T07:26:34Z</time>
      </trkpt>
      <trkpt lat="50.66726" lon="3.81997">
        <ele>24.17</ele>
        <time>2017-04-23T07:26:35Z</time>
      </trkpt>
      <trkpt lat="50.66727" lon="3.81996">
        <ele>24.17</ele>
        <time>2017-04-23T07:26:36Z</time>
      </trkpt>
      <trkpt lat="50.66729" lon="3.81996">
        <ele>24.17</ele>
        <time>2017-04-23T07:26:37Z</time>
      </trkpt>
      <trkpt lat="50.6673" lon="3.81994">
        <ele>24.17</ele>
        <time>2017-04-23T07:26:38Z</time>
      </trkpt>
      <trkpt lat="50.66731" lon="3.81993">
        <ele>24.17</ele>
        <time>2017-04-23T07:26:39Z</time>
      </trkpt>
      <trkpt lat="50.66732" lon="3.81991">
        <ele>24.17</ele>
        <time>2017-04-23T07:26:40Z</time>
      </trkpt>
      <trkpt lat="50.66733" lon="3.81989">
        <ele>24.17</ele>
        <time>2017-04-23T07:26:41Z</time>
      </trkpt>
      <trkpt lat="50.66735" lon="3.81987">
        <ele>24.17</ele>
        <time>2017-04-23T07:26:42Z</time>
      </trkpt>
      <trkpt lat="50.66736" lon="3.81985">
        <ele>24.17</ele>
        <time>2017-04-23T07:26:43Z</time>
      </trkpt>
      <trkpt lat="50.66736" lon="3.81983">
        <ele>24.17</ele>
        <time>2017-04-23T07:26:44Z</time>
      </trkpt>
      <trkpt lat="50.66737" lon="3.81981">
        <ele>24.17</ele>
        <time>2017-04-23T07:26:45Z</time>
      </trkpt>
      <trkpt lat="50.66739" lon="3.8198">
        <ele>24.17</ele>
        <time>2017-04-23T07:26:46Z</time>
      </trkpt>
      <trkpt lat="50.6674" lon="3.81978">
        <ele>24.17</ele>
        <time>2017-04-23T07:26:47Z</time>
      </trkpt>
      <trkpt lat="50.66741" lon="3.81976">
        <ele>24.17</ele>
        <time>2017-04-23T07:26:48Z</time>
      </trkpt>
      <trkpt lat="50.66742" lon="3.81974">
        <ele>24.17</ele>
        <time>2017-04-23T07:26:49Z</time>
      </trkpt>
      <trkpt lat="50.66742" lon="3.81972">
        <ele>24.17</ele>
        <time>2017-04-23T07:26:50Z</time>
      </trkpt>
      <trkpt lat="50.66743" lon="3.81971">
        <ele>24.17</ele>
        <time>2017-04-23T07:26:51Z</time>
      </trkpt>
      <trkpt lat="50.66744" lon="3.81969">
        <ele>24.17</ele>
        <time>2017-04-23T07:26:52Z</time>
      </trkpt>
      <trkpt lat="50.66745" lon="3.81967">
        <ele>24.17</ele>
        <time>2017-04-23T07:26:53Z</time>
      </trkpt>
      <trkpt lat="50.66762" lon="3.81934">
        <ele>23.69</ele>
        <time>2017-04-23T07:27:11Z</time>
      </trkpt>
      <trkpt lat="50.66776" lon="3.81908">
        <ele>23.21</ele>
        <time>2017-04-23T07:27:28Z</time>
      </trkpt>
      <trkpt lat="50.66774" lon="3.81903">
        <ele>23.21</ele>
        <time>2017-04-23T07:27:31Z</time>
      </trkpt>
      <trkpt lat="50.66773" lon="3.81901">
        <ele>23.21</ele>
        <time>2017-04-23T07:27:32Z</time>
      </trkpt>
      <trkpt lat="50.66761" lon="3.8187">
        <ele>23.21</ele>
        <time>2017-04-23T07:27:48Z</time>
      </trkpt>
      <trkpt lat="50.66759" lon="3.81835">
        <ele>23.21</ele>
        <time>2017-04-23T07:28:04Z</time>
      </trkpt>
      <trkpt lat="50.66759" lon="3.81816">
        <ele>23.21</ele>
        <time>2017-04-23T07:28:12Z</time>
      </trkpt>
      <trkpt lat="50.66779" lon="3.81788">
        <ele>23.21</ele>
        <time>2017-04-23T07:28:29Z</time>
      </trkpt>
      <trkpt lat="50.66799" lon="3.81767">
        <ele>23.21</ele>
        <time>2017-04-23T07:28:46Z</time>
      </trkpt>
      <trkpt lat="50.668" lon="3.81767">
        <ele>22.73</ele>
        <time>2017-04-23T07:28:47Z</time>
      </trkpt>
      <trkpt lat="50.66801" lon="3.81768">
        <ele>22.73</ele>
        <time>2017-04-23T07:28:48Z</time>
      </trkpt>
      <trkpt lat="50.66824" lon="3.81803">
        <ele>22.73</ele>
        <time>2017-04-23T07:29:09Z</time>
      </trkpt>
      <trkpt lat="50.66844" lon="3.81832">
        <ele>22.73</ele>
        <time>2017-04-23T07:29:27Z</time>
      </trkpt>
      <trkpt lat="50.66867" lon="3.81868">
        <ele>22.73</ele>
        <time>2017-04-23T07:29:48Z</time>
      </trkpt>
      <trkpt lat="50.66885" lon="3.81898">
        <ele>22.73</ele>
        <time>2017-04-23T07:30:05Z</time>
      </trkpt>
      <trkpt lat="50.66902" lon="3.81925">
        <ele>22.73</ele>
        <time>2017-04-23T07:30:22Z</time>
      </trkpt>
      <trkpt lat="50.66919" lon="3.81954">
        <ele>23.69</ele>
        <time>2017-04-23T07:30:38Z</time>
      </trkpt>
      <trkpt lat="50.66933" lon="3.81982">
        <ele>24.17</ele>
        <time>2017-04-23T07:30:55Z</time>
      </trkpt>
      <trkpt lat="50.66946" lon="3.82012">
        <ele>24.17</ele>
        <time>2017-04-23T07:31:11Z</time>
      </trkpt>
      <trkpt lat="50.66959" lon="3.82045">
        <ele>24.65</ele>
        <time>2017-04-23T07:31:28Z</time>
      </trkpt>
      <trkpt lat="50.66964" lon="3.8207">
        <ele>24.65</ele>
        <time>2017-04-23T07:31:42Z</time>
      </trkpt>
      <trkpt lat="50.66963" lon="3.82071">
        <ele>24.65</ele>
        <time>2017-04-23T07:31:43Z</time>
      </trkpt>
      <trkpt lat="50.66955" lon="3.8208">
        <ele>24.65</ele>
        <time>2017-04-23T07:31:50Z</time>
      </trkpt>
      <trkpt lat="50.66943" lon="3.821">
        <ele>24.65</ele>
        <time>2017-04-23T07:32:02Z</time>
      </trkpt>
      <trkpt lat="50.66942" lon="3.82111">
        <ele>24.65</ele>
        <time>2017-04-23T07:32:05Z</time>
      </trkpt>
      <trkpt lat="50.66946" lon="3.82131">
        <ele>24.65</ele>
        <time>2017-04-23T07:32:14Z</time>
      </trkpt>
      <trkpt lat="50.66959" lon="3.82157">
        <ele>24.65</ele>
        <time>2017-04-23T07:32:29Z</time>
      </trkpt>
      <trkpt lat="50.66966" lon="3.82183">
        <ele>25.13</ele>
        <time>2017-04-23T07:32:41Z</time>
      </trkpt>
      <trkpt lat="50.66974" lon="3.82206">
        <ele>25.61</ele>
        <time>2017-04-23T07:32:54Z</time>
      </trkpt>
      <trkpt lat="50.66983" lon="3.82232">
        <ele>25.61</ele>
        <time>2017-04-23T07:33:08Z</time>
      </trkpt>
      <trkpt lat="50.66977" lon="3.82253">
        <ele>25.61</ele>
        <time>2017-04-23T07:33:23Z</time>
      </trkpt>
      <trkpt lat="50.66978" lon="3.82257">
        <ele>25.61</ele>
        <time>2017-04-23T07:33:40Z</time>
      </trkpt>
      <trkpt lat="50.6698" lon="3.82258">
        <ele>26.09</ele>
        <time>2017-04-23T07:34:00Z</time>
      </trkpt>
      <trkpt lat="50.66982" lon="3.8226">
        <ele>26.09</ele>
        <time>2017-04-23T07:34:18Z</time>
      </trkpt>
      <trkpt lat="50.6698" lon="3.82259">
        <ele>26.09</ele>
        <time>2017-04-23T07:34:40Z</time>
      </trkpt>
      <trkpt lat="50.66977" lon="3.82254">
        <ele>26.09</ele>
        <time>2017-04-23T07:34:59Z</time>
      </trkpt>
      <trkpt lat="50.6698" lon="3.82248">
        <ele>26.09</ele>
        <time>2017-04-23T07:35:25Z</time>
      </trkpt>
      <trkpt lat="50.66982" lon="3.82246">
        <ele>27.05</ele>
        <time>2017-04-23T07:35:51Z</time>
      </trkpt>
      <trkpt lat="50.66981" lon="3.82244">
        <ele>27.05</ele>
        <time>2017-04-23T07:36:17Z</time>
      </trkpt>
      <trkpt lat="50.66981" lon="3.82259">
        <ele>27.05</ele>
        <time>2017-04-23T07:36:35Z</time>
      </trkpt>
      <trkpt lat="50.66981" lon="3.82257">
        <ele>27.05</ele>
        <time>2017-04-23T07:36:52Z</time>
      </trkpt>
      <trkpt lat="50.66979" lon="3.8226">
        <ele>27.05</ele>
        <time>2017-04-23T07:37:12Z</time>
      </trkpt>
      <trkpt lat="50.6698" lon="3.82257">
        <ele>27.05</ele>
        <time>2017-04-23T07:37:36Z</time>
      </trkpt>
      <trkpt lat="50.6698" lon="3.82259">
        <ele>27.05</ele>
        <time>2017-04-23T07:38:05Z</time>
      </trkpt>
      <trkpt lat="50.66979" lon="3.82258">
        <ele>26.09</ele>
        <time>2017-04-23T07:38:19Z</time>
      </trkpt>
      <trkpt lat="50.66979" lon="3.82257">
        <ele>26.09</ele>
        <time>2017-04-23T07:38:44Z</time>
      </trkpt>
      <trkpt lat="50.66974" lon="3.82252">
        <ele>27.05</ele>
        <time>2017-04-23T07:39:17Z</time>
      </trkpt>
      <trkpt lat="50.66979" lon="3.82255">
        <ele>26.09</ele>
        <time>2017-04-23T07:39:31Z</time>
      </trkpt>
      <trkpt lat="50.66979" lon="3.82256">
        <ele>27.05</ele>
        <time>2017-04-23T07:39:52Z</time>
      </trkpt>
      <trkpt lat="50.66978" lon="3.82257">
        <ele>26.09</ele>
        <time>2017-04-23T07:40:04Z</time>
      </trkpt>
      <trkpt lat="50.66975" lon="3.82253">
        <ele>26.09</ele>
        <time>2017-04-23T07:40:32Z</time>
      </trkpt>
      <trkpt lat="50.66975" lon="3.82253">
        <ele>27.53</ele>
        <time>2017-04-23T07:40:38Z</time>
      </trkpt>
      <trkpt lat="50.66975" lon="3.82252">
        <ele>26.09</ele>
        <time>2017-04-23T07:40:40Z</time>
      </trkpt>
      <trkpt lat="50.66977" lon="3.82259">
        <ele>27.05</ele>
        <time>2017-04-23T07:41:01Z</time>
      </trkpt>
      <trkpt lat="50.66975" lon="3.82254">
        <ele>27.05</ele>
        <time>2017-04-23T07:41:23Z</time>
      </trkpt>
      <trkpt lat="50.66974" lon="3.82253">
        <ele>27.05</ele>
        <time>2017-04-23T07:41:50Z</time>
      </trkpt>
      <trkpt lat="50.66976" lon="3.82254">
        <ele>27.05</ele>
        <time>2017-04-23T07:42:15Z</time>
      </trkpt>
      <trkpt lat="50.66976" lon="3.82258">
        <ele>27.05</ele>
        <time>2017-04-23T07:42:39Z</time>
      </trkpt>
      <trkpt lat="50.66975" lon="3.82254">
        <ele>27.05</ele>
        <time>2017-04-23T07:42:57Z</time>
      </trkpt>
      <trkpt lat="50.66972" lon="3.82249">
        <ele>27.05</ele>
        <time>2017-04-23T07:43:20Z</time>
      </trkpt>
      <trkpt lat="50.66974" lon="3.82252">
        <ele>27.05</ele>
        <time>2017-04-23T07:43:39Z</time>
      </trkpt>
      <trkpt lat="50.66977" lon="3.82262">
        <ele>27.05</ele>
        <time>2017-04-23T07:44:00Z</time>
      </trkpt>
      <trkpt lat="50.6698" lon="3.82257">
        <ele>27.05</ele>
        <time>2017-04-23T07:44:12Z</time>
      </trkpt>
      <trkpt lat="50.66982" lon="3.82259">
        <ele>27.05</ele>
        <time>2017-04-23T07:44:17Z</time>
      </trkpt>
      <trkpt lat="50.66979" lon="3.82273">
        <ele>27.05</ele>
        <time>2017-04-23T07:44:25Z</time>
      </trkpt>
      <trkpt lat="50.66981" lon="3.82298">
        <ele>27.53</ele>
        <time>2017-04-23T07:44:38Z</time>
      </trkpt>
      <trkpt lat="50.66982" lon="3.82326">
        <ele>27.53</ele>
        <time>2017-04-23T07:44:51Z</time>
      </trkpt>
      <trkpt lat="50.66984" lon="3.82339">
        <ele>28.02</ele>
        <time>2017-04-23T07:44:57Z</time>
      </trkpt>
      <trkpt lat="50.66986" lon="3.82342">
        <ele>28.02</ele>
        <time>2017-04-23T07:44:59Z</time>
      </trkpt>
      <trkpt lat="50.66986" lon="3.82349">
        <ele>28.02</ele>
        <time>2017-04-23T07:45:03Z</time>
      </trkpt>
      <trkpt lat="50.66992" lon="3.82373">
        <ele>28.02</ele>
        <time>2017-04-23T07:45:14Z</time>
      </trkpt>
      <trkpt lat="50.66996" lon="3.82383">
        <ele>28.5</ele>
        <time>2017-04-23T07:45:19Z</time>
      </trkpt>
      <trkpt lat="50.67002" lon="3.82395">
        <ele>28.5</ele>
        <time>2017-04-23T07:45:25Z</time>
      </trkpt>
      <trkpt lat="50.67003" lon="3.82402">
        <ele>29.46</ele>
        <time>2017-04-23T07:45:30Z</time>
      </trkpt>
      <trkpt lat="50.66992" lon="3.82412">
        <ele>29.46</ele>
        <time>2017-04-23T07:45:41Z</time>
      </trkpt>
      <trkpt lat="50.6697" lon="3.82426">
        <ele>30.9</ele>
        <time>2017-04-23T07:45:56Z</time>
      </trkpt>
      <trkpt lat="50.66951" lon="3.82437">
        <ele>31.38</ele>
        <time>2017-04-23T07:46:10Z</time>
      </trkpt>
      <trkpt lat="50.66931" lon="3.82449">
        <ele>32.34</ele>
        <time>2017-04-23T07:46:24Z</time>
      </trkpt>
      <trkpt lat="50.66911" lon="3.82463">
        <ele>34.26</ele>
        <time>2017-04-23T07:46:40Z</time>
      </trkpt>
      <trkpt lat="50.66889" lon="3.82483">
        <ele>34.26</ele>
        <time>2017-04-23T07:46:58Z</time>
      </trkpt>
      <trkpt lat="50.66864" lon="3.82495">
        <ele>34.26</ele>
        <time>2017-04-23T07:47:16Z</time>
      </trkpt>
      <trkpt lat="50.66839" lon="3.82514">
        <ele>33.3</ele>
        <time>2017-04-23T07:47:35Z</time>
      </trkpt>
      <trkpt lat="50.66813" lon="3.82537">
        <ele>32.82</ele>
        <time>2017-04-23T07:47:56Z</time>
      </trkpt>
      <trkpt lat="50.66798" lon="3.82562">
        <ele>32.34</ele>
        <time>2017-04-23T07:48:12Z</time>
      </trkpt>
      <trkpt lat="50.66781" lon="3.82592">
        <ele>31.38</ele>
        <time>2017-04-23T07:48:30Z</time>
      </trkpt>
      <trkpt lat="50.66766" lon="3.82615">
        <ele>31.38</ele>
        <time>2017-04-23T07:48:44Z</time>
      </trkpt>
      <trkpt lat="50.66765" lon="3.82618">
        <ele>31.38</ele>
        <time>2017-04-23T07:48:46Z</time>
      </trkpt>
      <trkpt lat="50.66745" lon="3.8265">
        <ele>30.9</ele>
        <time>2017-04-23T07:49:05Z</time>
      </trkpt>
      <trkpt lat="50.66727" lon="3.82676">
        <ele>30.42</ele>
        <time>2017-04-23T07:49:21Z</time>
      </trkpt>
      <trkpt lat="50.6672" lon="3.82687">
        <ele>30.42</ele>
        <time>2017-04-23T07:49:28Z</time>
      </trkpt>
      <trkpt lat="50.66703" lon="3.82714">
        <ele>29.94</ele>
        <time>2017-04-23T07:49:45Z</time>
      </trkpt>
      <trkpt lat="50.66686" lon="3.82741">
        <ele>30.42</ele>
        <time>2017-04-23T07:50:01Z</time>
      </trkpt>
      <trkpt lat="50.66668" lon="3.82767">
        <ele>31.38</ele>
        <time>2017-04-23T07:50:17Z</time>
      </trkpt>
      <trkpt lat="50.66652" lon="3.82792">
        <ele>31.38</ele>
        <time>2017-04-23T07:50:32Z</time>
      </trkpt>
      <trkpt lat="50.66632" lon="3.82822">
        <ele>31.38</ele>
        <time>2017-04-23T07:50:50Z</time>
      </trkpt>
      <trkpt lat="50.66616" lon="3.82847">
        <ele>31.38</ele>
        <time>2017-04-23T07:51:06Z</time>
      </trkpt>
      <trkpt lat="50.666" lon="3.8288">
        <ele>31.86</ele>
        <time>2017-04-23T07:51:24Z</time>
      </trkpt>
      <trkpt lat="50.66588" lon="3.8291">
        <ele>32.34</ele>
        <time>2017-04-23T07:51:39Z</time>
      </trkpt>
      <trkpt lat="50.66577" lon="3.82949">
        <ele>32.82</ele>
        <time>2017-04-23T07:51:58Z</time>
      </trkpt>
      <trkpt lat="50.66569" lon="3.82982">
        <ele>33.78</ele>
        <time>2017-04-23T07:52:14Z</time>
      </trkpt>
      <trkpt lat="50.66561" lon="3.83019">
        <ele>34.26</ele>
        <time>2017-04-23T07:52:31Z</time>
      </trkpt>
      <trkpt lat="50.66556" lon="3.83055">
        <ele>35.23</ele>
        <time>2017-04-23T07:52:48Z</time>
      </trkpt>
      <trkpt lat="50.66553" lon="3.83087">
        <ele>36.19</ele>
        <time>2017-04-23T07:53:03Z</time>
      </trkpt>
      <trkpt lat="50.66565" lon="3.8312">
        <ele>37.15</ele>
        <time>2017-04-23T07:53:20Z</time>
      </trkpt>
      <trkpt lat="50.66578" lon="3.83154">
        <ele>38.11</ele>
        <time>2017-04-23T07:53:38Z</time>
      </trkpt>
      <trkpt lat="50.66581" lon="3.83187">
        <ele>39.07</ele>
        <time>2017-04-23T07:53:53Z</time>
      </trkpt>
      <trkpt lat="50.66577" lon="3.83226">
        <ele>40.03</ele>
        <time>2017-04-23T07:54:11Z</time>
      </trkpt>
      <trkpt lat="50.66571" lon="3.8326">
        <ele>40.99</ele>
        <time>2017-04-23T07:54:27Z</time>
      </trkpt>
      <trkpt lat="50.66556" lon="3.83291">
        <ele>40.99</ele>
        <time>2017-04-23T07:54:45Z</time>
      </trkpt>
      <trkpt lat="50.66554" lon="3.83295">
        <ele>39.55</ele>
        <time>2017-04-23T07:54:47Z</time>
      </trkpt>
      <trkpt lat="50.66543" lon="3.83322">
        <ele>39.07</ele>
        <time>2017-04-23T07:55:01Z</time>
      </trkpt>
      <trkpt lat="50.6653" lon="3.83356">
        <ele>38.59</ele>
        <time>2017-04-23T07:55:19Z</time>
      </trkpt>
      <trkpt lat="50.66514" lon="3.83396">
        <ele>38.11</ele>
        <time>2017-04-23T07:55:39Z</time>
      </trkpt>
      <trkpt lat="50.66504" lon="3.83431">
        <ele>37.63</ele>
        <time>2017-04-23T07:55:56Z</time>
      </trkpt>
      <trkpt lat="50.66494" lon="3.83468">
        <ele>37.63</ele>
        <time>2017-04-23T07:56:13Z</time>
      </trkpt>
      <trkpt lat="50.66484" lon="3.83506">
        <ele>37.63</ele>
        <time>2017-04-23T07:56:31Z</time>
      </trkpt>
      <trkpt lat="50.66474" lon="3.83541">
        <ele>37.63</ele>
        <time>2017-04-23T07:56:48Z</time>
      </trkpt>
      <trkpt lat="50.66462" lon="3.83579">
        <ele>37.15</ele>
        <time>2017-04-23T07:57:06Z</time>
      </trkpt>
      <trkpt lat="50.66451" lon="3.83617">
        <ele>37.15</ele>
        <time>2017-04-23T07:57:24Z</time>
      </trkpt>
      <trkpt lat="50.66441" lon="3.83654">
        <ele>36.19</ele>
        <time>2017-04-23T07:57:42Z</time>
      </trkpt>
      <trkpt lat="50.6643" lon="3.83681">
        <ele>36.19</ele>
        <time>2017-04-23T07:57:56Z</time>
      </trkpt>
      <trkpt lat="50.66408" lon="3.83702">
        <ele>35.71</ele>
        <time>2017-04-23T07:58:14Z</time>
      </trkpt>
      <trkpt lat="50.66382" lon="3.8372">
        <ele>35.71</ele>
        <time>2017-04-23T07:58:33Z</time>
      </trkpt>
      <trkpt lat="50.66355" lon="3.83741">
        <ele>35.71</ele>
        <time>2017-04-23T07:58:54Z</time>
      </trkpt>
      <trkpt lat="50.66334" lon="3.83762">
        <ele>36.67</ele>
        <time>2017-04-23T07:59:12Z</time>
      </trkpt>
      <trkpt lat="50.66318" lon="3.83798">
        <ele>37.15</ele>
        <time>2017-04-23T07:59:31Z</time>
      </trkpt>
      <trkpt lat="50.66304" lon="3.83828">
        <ele>37.63</ele>
        <time>2017-04-23T07:59:48Z</time>
      </trkpt>
      <trkpt lat="50.6629" lon="3.83862">
        <ele>38.59</ele>
        <time>2017-04-23T08:00:06Z</time>
      </trkpt>
      <trkpt lat="50.66274" lon="3.83895">
        <ele>38.59</ele>
        <time>2017-04-23T08:00:24Z</time>
      </trkpt>
      <trkpt lat="50.66259" lon="3.83927">
        <ele>39.55</ele>
        <time>2017-04-23T08:00:41Z</time>
      </trkpt>
      <trkpt lat="50.66244" lon="3.83959">
        <ele>40.03</ele>
        <time>2017-04-23T08:00:58Z</time>
      </trkpt>
      <trkpt lat="50.66229" lon="3.83996">
        <ele>41.47</ele>
        <time>2017-04-23T08:01:18Z</time>
      </trkpt>
      <trkpt lat="50.66216" lon="3.84026">
        <ele>42.92</ele>
        <time>2017-04-23T08:01:34Z</time>
      </trkpt>
      <trkpt lat="50.66203" lon="3.84056">
        <ele>43.4</ele>
        <time>2017-04-23T08:01:50Z</time>
      </trkpt>
      <trkpt lat="50.6619" lon="3.84084">
        <ele>44.36</ele>
        <time>2017-04-23T08:02:06Z</time>
      </trkpt>
      <trkpt lat="50.66174" lon="3.84106">
        <ele>45.32</ele>
        <time>2017-04-23T08:02:21Z</time>
      </trkpt>
      <trkpt lat="50.6615" lon="3.84106">
        <ele>45.32</ele>
        <time>2017-04-23T08:02:38Z</time>
      </trkpt>
      <trkpt lat="50.66127" lon="3.84104">
        <ele>45.32</ele>
        <time>2017-04-23T08:02:55Z</time>
      </trkpt>
      <trkpt lat="50.66108" lon="3.84099">
        <ele>45.32</ele>
        <time>2017-04-23T08:03:09Z</time>
      </trkpt>
      <trkpt lat="50.66081" lon="3.84098">
        <ele>43.4</ele>
        <time>2017-04-23T08:03:29Z</time>
      </trkpt>
      <trkpt lat="50.66063" lon="3.84095">
        <ele>42.92</ele>
        <time>2017-04-23T08:03:43Z</time>
      </trkpt>
      <trkpt lat="50.6604" lon="3.84091">
        <ele>41.95</ele>
        <time>2017-04-23T08:03:59Z</time>
      </trkpt>
      <trkpt lat="50.66031" lon="3.8409">
        <ele>41.47</ele>
        <time>2017-04-23T08:04:05Z</time>
      </trkpt>
      <trkpt lat="50.66006" lon="3.84089">
        <ele>40.99</ele>
        <time>2017-04-23T08:04:23Z</time>
      </trkpt>
      <trkpt lat="50.65996" lon="3.84088">
        <ele>40.99</ele>
        <time>2017-04-23T08:04:30Z</time>
      </trkpt>
      <trkpt lat="50.65989" lon="3.84083">
        <ele>40.51</ele>
        <time>2017-04-23T08:04:35Z</time>
      </trkpt>
      <trkpt lat="50.65973" lon="3.84082">
        <ele>40.51</ele>
        <time>2017-04-23T08:04:46Z</time>
      </trkpt>
      <trkpt lat="50.65956" lon="3.84079">
        <ele>40.03</ele>
        <time>2017-04-23T08:04:57Z</time>
      </trkpt>
      <trkpt lat="50.65947" lon="3.84074">
        <ele>40.03</ele>
        <time>2017-04-23T08:05:03Z</time>
      </trkpt>
      <trkpt lat="50.65926" lon="3.84053">
        <ele>39.07</ele>
        <time>2017-04-23T08:05:20Z</time>
      </trkpt>
      <trkpt lat="50.65933" lon="3.84025">
        <ele>38.59</ele>
        <time>2017-04-23T08:05:34Z</time>
      </trkpt>
      <trkpt lat="50.6595" lon="3.83997">
        <ele>38.11</ele>
        <time>2017-04-23T08:05:50Z</time>
      </trkpt>
      <trkpt lat="50.65963" lon="3.83962">
        <ele>38.11</ele>
        <time>2017-04-23T08:06:08Z</time>
      </trkpt>
      <trkpt lat="50.65971" lon="3.83928">
        <ele>38.11</ele>
        <time>2017-04-23T08:06:24Z</time>
      </trkpt>
      <trkpt lat="50.6598" lon="3.83898">
        <ele>37.63</ele>
        <time>2017-04-23T08:06:39Z</time>
      </trkpt>
      <trkpt lat="50.65982" lon="3.83862">
        <ele>37.63</ele>
        <time>2017-04-23T08:06:56Z</time>
      </trkpt>
      <trkpt lat="50.65984" lon="3.83822">
        <ele>37.63</ele>
        <time>2017-04-23T08:07:15Z</time>
      </trkpt>
      <trkpt lat="50.65985" lon="3.83814">
        <ele>37.63</ele>
        <time>2017-04-23T08:07:20Z</time>
      </trkpt>
      <trkpt lat="50.65982" lon="3.83815">
        <ele>37.63</ele>
        <time>2017-04-23T08:07:33Z</time>
      </trkpt>
      <trkpt lat="50.65982" lon="3.83815">
        <ele>37.63</ele>
        <time>2017-04-23T08:07:56Z</time>
      </trkpt>
      <trkpt lat="50.65985" lon="3.83817">
        <ele>37.63</ele>
        <time>2017-04-23T08:08:27Z</time>
      </trkpt>
      <trkpt lat="50.65985" lon="3.83815">
        <ele>37.63</ele>
        <time>2017-04-23T08:08:36Z</time>
      </trkpt>
      <trkpt lat="50.65988" lon="3.83819">
        <ele>37.63</ele>
        <time>2017-04-23T08:08:41Z</time>
      </trkpt>
      <trkpt lat="50.65988" lon="3.83853">
        <ele>37.63</ele>
        <time>2017-04-23T08:08:57Z</time>
      </trkpt>
      <trkpt lat="50.65983" lon="3.83889">
        <ele>38.11</ele>
        <time>2017-04-23T08:09:14Z</time>
      </trkpt>
      <trkpt lat="50.65976" lon="3.83927">
        <ele>38.11</ele>
        <time>2017-04-23T08:09:31Z</time>
      </trkpt>
      <trkpt lat="50.65968" lon="3.83962">
        <ele>38.11</ele>
        <time>2017-04-23T08:09:46Z</time>
      </trkpt>
      <trkpt lat="50.65956" lon="3.83995">
        <ele>38.11</ele>
        <time>2017-04-23T08:10:03Z</time>
      </trkpt>
      <trkpt lat="50.65941" lon="3.8402">
        <ele>38.11</ele>
        <time>2017-04-23T08:10:19Z</time>
      </trkpt>
      <trkpt lat="50.65925" lon="3.84047">
        <ele>39.07</ele>
        <time>2017-04-23T08:10:36Z</time>
      </trkpt>
      <trkpt lat="50.6591" lon="3.84072">
        <ele>39.07</ele>
        <time>2017-04-23T08:10:51Z</time>
      </trkpt>
      <trkpt lat="50.65895" lon="3.84102">
        <ele>39.55</ele>
        <time>2017-04-23T08:11:07Z</time>
      </trkpt>
      <trkpt lat="50.65884" lon="3.8413">
        <ele>40.03</ele>
        <time>2017-04-23T08:11:22Z</time>
      </trkpt>
      <trkpt lat="50.65868" lon="3.84164">
        <ele>40.03</ele>
        <time>2017-04-23T08:11:40Z</time>
      </trkpt>
      <trkpt lat="50.65865" lon="3.84171">
        <ele>40.03</ele>
        <time>2017-04-23T08:11:43Z</time>
      </trkpt>
      <trkpt lat="50.65859" lon="3.84183">
        <ele>39.07</ele>
        <time>2017-04-23T08:11:50Z</time>
      </trkpt>
      <trkpt lat="50.65844" lon="3.84215">
        <ele>37.63</ele>
        <time>2017-04-23T08:12:08Z</time>
      </trkpt>
      <trkpt lat="50.6583" lon="3.84244">
        <ele>36.67</ele>
        <time>2017-04-23T08:12:23Z</time>
      </trkpt>
      <trkpt lat="50.65816" lon="3.84269">
        <ele>34.74</ele>
        <time>2017-04-23T08:12:38Z</time>
      </trkpt>
      <trkpt lat="50.65811" lon="3.84272">
        <ele>34.26</ele>
        <time>2017-04-23T08:12:42Z</time>
      </trkpt>
      <trkpt lat="50.6579" lon="3.84291">
        <ele>32.82</ele>
        <time>2017-04-23T08:12:59Z</time>
      </trkpt>
      <trkpt lat="50.65773" lon="3.84276">
        <ele>31.86</ele>
        <time>2017-04-23T08:13:12Z</time>
      </trkpt>
      <trkpt lat="50.65753" lon="3.84257">
        <ele>30.42</ele>
        <time>2017-04-23T08:13:27Z</time>
      </trkpt>
      <trkpt lat="50.65735" lon="3.84239">
        <ele>29.94</ele>
        <time>2017-04-23T08:13:41Z</time>
      </trkpt>
      <trkpt lat="50.6572" lon="3.84216">
        <ele>28.98</ele>
        <time>2017-04-23T08:13:56Z</time>
      </trkpt>
      <trkpt lat="50.65705" lon="3.84191">
        <ele>28.5</ele>
        <time>2017-04-23T08:14:11Z</time>
      </trkpt>
      <trkpt lat="50.65681" lon="3.84183">
        <ele>28.02</ele>
        <time>2017-04-23T08:14:27Z</time>
      </trkpt>
      <trkpt lat="50.65657" lon="3.84178">
        <ele>28.02</ele>
        <time>2017-04-23T08:14:43Z</time>
      </trkpt>
      <trkpt lat="50.65642" lon="3.84172">
        <ele>28.02</ele>
        <time>2017-04-23T08:14:56Z</time>
      </trkpt>
      <trkpt lat="50.65621" lon="3.84171">
        <ele>28.02</ele>
        <time>2017-04-23T08:15:11Z</time>
      </trkpt>
      <trkpt lat="50.65597" lon="3.84171">
        <ele>28.02</ele>
        <time>2017-04-23T08:15:28Z</time>
      </trkpt>
      <trkpt lat="50.65576" lon="3.8417">
        <ele>27.05</ele>
        <time>2017-04-23T08:15:43Z</time>
      </trkpt>
      <trkpt lat="50.65554" lon="3.84168">
        <ele>27.53</ele>
        <time>2017-04-23T08:15:58Z</time>
      </trkpt>
      <trkpt lat="50.65532" lon="3.84164">
        <ele>27.53</ele>
        <time>2017-04-23T08:16:13Z</time>
      </trkpt>
      <trkpt lat="50.6551" lon="3.84162">
        <ele>28.5</ele>
        <time>2017-04-23T08:16:28Z</time>
      </trkpt>
      <trkpt lat="50.65487" lon="3.84154">
        <ele>28.5</ele>
        <time>2017-04-23T08:16:43Z</time>
      </trkpt>
      <trkpt lat="50.65468" lon="3.84145">
        <ele>28.5</ele>
        <time>2017-04-23T08:16:58Z</time>
      </trkpt>
      <trkpt lat="50.65452" lon="3.84137">
        <ele>28.98</ele>
        <time>2017-04-23T08:17:11Z</time>
      </trkpt>
      <trkpt lat="50.65431" lon="3.84127">
        <ele>29.94</ele>
        <time>2017-04-23T08:17:26Z</time>
      </trkpt>
      <trkpt lat="50.65405" lon="3.84117">
        <ele>29.94</ele>
        <time>2017-04-23T08:17:42Z</time>
      </trkpt>
      <trkpt lat="50.65384" lon="3.84119">
        <ele>29.94</ele>
        <time>2017-04-23T08:17:57Z</time>
      </trkpt>
      <trkpt lat="50.65359" lon="3.84135">
        <ele>29.94</ele>
        <time>2017-04-23T08:18:15Z</time>
      </trkpt>
      <trkpt lat="50.65338" lon="3.84149">
        <ele>29.94</ele>
        <time>2017-04-23T08:18:32Z</time>
      </trkpt>
      <trkpt lat="50.65317" lon="3.84163">
        <ele>29.94</ele>
        <time>2017-04-23T08:18:47Z</time>
      </trkpt>
      <trkpt lat="50.65299" lon="3.84181">
        <ele>29.94</ele>
        <time>2017-04-23T08:19:01Z</time>
      </trkpt>
      <trkpt lat="50.65278" lon="3.84207">
        <ele>29.94</ele>
        <time>2017-04-23T08:19:19Z</time>
      </trkpt>
      <trkpt lat="50.65259" lon="3.84232">
        <ele>29.94</ele>
        <time>2017-04-23T08:19:36Z</time>
      </trkpt>
      <trkpt lat="50.65246" lon="3.84261">
        <ele>29.94</ele>
        <time>2017-04-23T08:19:52Z</time>
      </trkpt>
      <trkpt lat="50.65237" lon="3.84283">
        <ele>29.94</ele>
        <time>2017-04-23T08:20:04Z</time>
      </trkpt>
      <trkpt lat="50.65229" lon="3.84318">
        <ele>29.94</ele>
        <time>2017-04-23T08:20:20Z</time>
      </trkpt>
      <trkpt lat="50.65223" lon="3.84353">
        <ele>30.42</ele>
        <time>2017-04-23T08:20:36Z</time>
      </trkpt>
      <trkpt lat="50.65208" lon="3.84382">
        <ele>30.9</ele>
        <time>2017-04-23T08:20:53Z</time>
      </trkpt>
      <trkpt lat="50.65183" lon="3.84397">
        <ele>30.9</ele>
        <time>2017-04-23T08:21:12Z</time>
      </trkpt>
      <trkpt lat="50.65155" lon="3.84407">
        <ele>30.9</ele>
        <time>2017-04-23T08:21:30Z</time>
      </trkpt>
      <trkpt lat="50.65127" lon="3.84414">
        <ele>30.9</ele>
        <time>2017-04-23T08:21:48Z</time>
      </trkpt>
      <trkpt lat="50.65105" lon="3.84423">
        <ele>31.38</ele>
        <time>2017-04-23T08:22:04Z</time>
      </trkpt>
      <trkpt lat="50.65077" lon="3.8443">
        <ele>30.9</ele>
        <time>2017-04-23T08:22:23Z</time>
      </trkpt>
      <trkpt lat="50.65055" lon="3.84429">
        <ele>30.9</ele>
        <time>2017-04-23T08:22:38Z</time>
      </trkpt>
      <trkpt lat="50.65033" lon="3.84424">
        <ele>30.9</ele>
        <time>2017-04-23T08:22:53Z</time>
      </trkpt>
      <trkpt lat="50.65019" lon="3.84418">
        <ele>30.9</ele>
        <time>2017-04-23T08:23:03Z</time>
      </trkpt>
      <trkpt lat="50.65" lon="3.8442">
        <ele>30.9</ele>
        <time>2017-04-23T08:23:18Z</time>
      </trkpt>
      <trkpt lat="50.64989" lon="3.84419">
        <ele>30.9</ele>
        <time>2017-04-23T08:23:25Z</time>
      </trkpt>
      <trkpt lat="50.64979" lon="3.84413">
        <ele>31.38</ele>
        <time>2017-04-23T08:23:32Z</time>
      </trkpt>
      <trkpt lat="50.64976" lon="3.84412">
        <ele>31.38</ele>
        <time>2017-04-23T08:23:34Z</time>
      </trkpt>
      <trkpt lat="50.64955" lon="3.84404">
        <ele>31.38</ele>
        <time>2017-04-23T08:23:49Z</time>
      </trkpt>
      <trkpt lat="50.64936" lon="3.84398">
        <ele>31.86</ele>
        <time>2017-04-23T08:24:03Z</time>
      </trkpt>
      <trkpt lat="50.64914" lon="3.84392">
        <ele>31.86</ele>
        <time>2017-04-23T08:24:17Z</time>
      </trkpt>
      <trkpt lat="50.64895" lon="3.84392">
        <ele>31.86</ele>
        <time>2017-04-23T08:24:31Z</time>
      </trkpt>
      <trkpt lat="50.64874" lon="3.84393">
        <ele>32.34</ele>
        <time>2017-04-23T08:24:45Z</time>
      </trkpt>
      <trkpt lat="50.64852" lon="3.84395">
        <ele>32.82</ele>
        <time>2017-04-23T08:25:00Z</time>
      </trkpt>
      <trkpt lat="50.64832" lon="3.84402">
        <ele>32.82</ele>
        <time>2017-04-23T08:25:15Z</time>
      </trkpt>
      <trkpt lat="50.64821" lon="3.84405">
        <ele>32.82</ele>
        <time>2017-04-23T08:25:23Z</time>
      </trkpt>
      <trkpt lat="50.64822" lon="3.84429">
        <ele>33.3</ele>
        <time>2017-04-23T08:25:35Z</time>
      </trkpt>
      <trkpt lat="50.64822" lon="3.84438">
        <ele>33.3</ele>
        <time>2017-04-23T08:25:39Z</time>
      </trkpt>
      <trkpt lat="50.64823" lon="3.84457">
        <ele>33.78</ele>
        <time>2017-04-23T08:25:50Z</time>
      </trkpt>
      <trkpt lat="50.64825" lon="3.84481">
        <ele>34.74</ele>
        <time>2017-04-23T08:26:01Z</time>
      </trkpt>
      <trkpt lat="50.64824" lon="3.84515">
        <ele>35.71</ele>
        <time>2017-04-23T08:26:16Z</time>
      </trkpt>
      <trkpt lat="50.64827" lon="3.8455">
        <ele>37.63</ele>
        <time>2017-04-23T08:26:32Z</time>
      </trkpt>
      <trkpt lat="50.64828" lon="3.84551">
        <ele>37.63</ele>
        <time>2017-04-23T08:26:33Z</time>
      </trkpt>
      <trkpt lat="50.64829" lon="3.84581">
        <ele>38.59</ele>
        <time>2017-04-23T08:26:47Z</time>
      </trkpt>
      <trkpt lat="50.64833" lon="3.84611">
        <ele>40.51</ele>
        <time>2017-04-23T08:27:01Z</time>
      </trkpt>
      <trkpt lat="50.6484" lon="3.84638">
        <ele>41.95</ele>
        <time>2017-04-23T08:27:15Z</time>
      </trkpt>
      <trkpt lat="50.64841" lon="3.8465">
        <ele>41.95</ele>
        <time>2017-04-23T08:27:23Z</time>
      </trkpt>
      <trkpt lat="50.64855" lon="3.84664">
        <ele>42.92</ele>
        <time>2017-04-23T08:27:36Z</time>
      </trkpt>
      <trkpt lat="50.64859" lon="3.8468">
        <ele>43.4</ele>
        <time>2017-04-23T08:27:43Z</time>
      </trkpt>
      <trkpt lat="50.64872" lon="3.84696">
        <ele>43.88</ele>
        <time>2017-04-23T08:27:57Z</time>
      </trkpt>
      <trkpt lat="50.64883" lon="3.84707">
        <ele>43.88</ele>
        <time>2017-04-23T08:28:07Z</time>
      </trkpt>
      <trkpt lat="50.64898" lon="3.84722">
        <ele>44.36</ele>
        <time>2017-04-23T08:28:21Z</time>
      </trkpt>
      <trkpt lat="50.64913" lon="3.84735">
        <ele>43.88</ele>
        <time>2017-04-23T08:28:34Z</time>
      </trkpt>
      <trkpt lat="50.64924" lon="3.84744">
        <ele>42.92</ele>
        <time>2017-04-23T08:28:47Z</time>
      </trkpt>
      <trkpt lat="50.64925" lon="3.84747">
        <ele>42.92</ele>
        <time>2017-04-23T08:28:50Z</time>
      </trkpt>
      <trkpt lat="50.64936" lon="3.84777">
        <ele>42.92</ele>
        <time>2017-04-23T08:29:01Z</time>
      </trkpt>
      <trkpt lat="50.64936" lon="3.84795">
        <ele>42.92</ele>
        <time>2017-04-23T08:29:09Z</time>
      </trkpt>
      <trkpt lat="50.64935" lon="3.84804">
        <ele>42.92</ele>
        <time>2017-04-23T08:29:15Z</time>
      </trkpt>
      <trkpt lat="50.64933" lon="3.8481">
        <ele>42.92</ele>
        <time>2017-04-23T08:29:19Z</time>
      </trkpt>
      <trkpt lat="50.64933" lon="3.84814">
        <ele>42.92</ele>
        <time>2017-04-23T08:29:21Z</time>
      </trkpt>
      <trkpt lat="50.64932" lon="3.84818">
        <ele>42.92</ele>
        <time>2017-04-23T08:29:23Z</time>
      </trkpt>
      <trkpt lat="50.64929" lon="3.84846">
        <ele>44.36</ele>
        <time>2017-04-23T08:29:36Z</time>
      </trkpt>
      <trkpt lat="50.64928" lon="3.84871">
        <ele>44.84</ele>
        <time>2017-04-23T08:29:47Z</time>
      </trkpt>
      <trkpt lat="50.64927" lon="3.84898">
        <ele>45.32</ele>
        <time>2017-04-23T08:30:00Z</time>
      </trkpt>
      <trkpt lat="50.64928" lon="3.84901">
        <ele>45.32</ele>
        <time>2017-04-23T08:30:01Z</time>
      </trkpt>
      <trkpt lat="50.6493" lon="3.84907">
        <ele>45.32</ele>
        <time>2017-04-23T08:30:05Z</time>
      </trkpt>
      <trkpt lat="50.64933" lon="3.8492">
        <ele>46.28</ele>
        <time>2017-04-23T08:30:18Z</time>
      </trkpt>
      <trkpt lat="50.64934" lon="3.84918">
        <ele>46.28</ele>
        <time>2017-04-23T08:30:21Z</time>
      </trkpt>
      <trkpt lat="50.64938" lon="3.84916">
        <ele>45.8</ele>
        <time>2017-04-23T08:30:34Z</time>
      </trkpt>
      <trkpt lat="50.64938" lon="3.84913">
        <ele>45.8</ele>
        <time>2017-04-23T08:30:57Z</time>
      </trkpt>
      <trkpt lat="50.64939" lon="3.84913">
        <ele>45.8</ele>
        <time>2017-04-23T08:31:22Z</time>
      </trkpt>
      <trkpt lat="50.64939" lon="3.84912">
        <ele>46.28</ele>
        <time>2017-04-23T08:31:51Z</time>
      </trkpt>
      <trkpt lat="50.64937" lon="3.8491">
        <ele>46.28</ele>
        <time>2017-04-23T08:32:23Z</time>
      </trkpt>
      <trkpt lat="50.64937" lon="3.84911">
        <ele>46.28</ele>
        <time>2017-04-23T08:32:51Z</time>
      </trkpt>
    </trkseg>
  </trk>
</gpx>